createdAt,value
2023-03-26T00:01:47.296Z,4.30
2023-03-26T00:04:19.665Z,3.80
2023-03-26T00:06:48.869Z,3.13
2023-03-26T00:09:17.870Z,4.07
2023-03-26T00:11:47.550Z,4.10
2023-03-26T00:14:17.793Z,4.23
2023-03-26T00:16:47.464Z,3.67
2023-03-26T00:19:15.663Z,3.97
2023-03-26T00:21:43.425Z,4.07
2023-03-26T00:24:15.055Z,3.43
2023-03-26T00:26:43.670Z,3.53
2023-03-26T00:29:13.928Z,3.80
2023-03-26T00:31:46.501Z,3.80
2023-03-26T00:34:15.691Z,3.50
2023-03-26T00:36:44.021Z,3.60
2023-03-26T00:39:11.908Z,3.43
2023-03-26T00:41:43.200Z,3.80
2023-03-26T00:44:12.657Z,3.90
2023-03-26T00:46:40.942Z,3.97
2023-03-26T00:49:10.980Z,3.40
2023-03-26T00:51:39.614Z,3.80
2023-03-26T00:54:08.238Z,3.30
2023-03-26T00:56:36.061Z,4.20
2023-03-26T00:59:04.027Z,4.47
2023-03-26T01:01:33.740Z,3.73
2023-03-26T01:04:24.118Z,3.40
2023-03-26T01:06:52.234Z,4.63
2023-03-26T01:09:21.971Z,4.80
2023-03-26T01:11:50.970Z,4.70
2023-03-26T01:14:21.277Z,4.30
2023-03-26T01:16:55.134Z,3.57
2023-03-26T01:19:30.478Z,3.77
2023-03-26T01:22:00.738Z,4.00
2023-03-26T01:24:29.950Z,3.83
2023-03-26T01:27:17.927Z,3.83
2023-03-26T01:29:52.657Z,4.00
2023-03-26T01:32:31.042Z,3.07
2023-03-26T01:35:12.447Z,4.07
2023-03-26T01:37:52.611Z,4.50
2023-03-26T01:40:26.995Z,4.33
2023-03-26T01:43:04.712Z,4.50
2023-03-26T01:45:37.027Z,3.80
2023-03-26T01:48:05.695Z,4.23
2023-03-26T01:50:33.592Z,4.07
2023-03-26T01:53:02.252Z,4.03
2023-03-26T01:55:38.909Z,3.67
2023-03-26T01:58:15.462Z,4.70
2023-03-26T02:00:49.192Z,3.57
2023-03-26T02:03:26.450Z,3.60
2023-03-26T02:05:58.585Z,3.50
2023-03-26T02:08:35.544Z,3.37
2023-03-26T02:11:11.458Z,4.37
2023-03-26T02:13:41.019Z,4.30
2023-03-26T02:16:12.430Z,4.03
2023-03-26T02:18:40.250Z,3.40
2023-03-26T02:21:12.355Z,3.33
2023-03-26T02:23:40.582Z,3.67
2023-03-26T02:26:12.319Z,4.67
2023-03-26T02:28:40.195Z,3.67
2023-03-26T02:31:09.779Z,3.93
2023-03-26T02:33:38.414Z,3.67
2023-03-26T02:36:08.546Z,3.50
2023-03-26T02:38:36.860Z,3.67
2023-03-26T02:41:05.097Z,3.47
2023-03-26T02:43:34.380Z,3.27
2023-03-26T02:46:03.319Z,3.87
2023-03-26T02:48:31.443Z,3.10
2023-03-26T02:50:59.239Z,2.80
2023-03-26T02:53:30.341Z,3.73
2023-03-26T02:55:58.369Z,3.60
2023-03-26T02:58:26.891Z,3.00
2023-03-26T03:00:56.330Z,3.47
2023-03-26T03:03:24.961Z,3.67
2023-03-26T03:05:53.398Z,3.40
2023-03-26T03:08:22.667Z,3.40
2023-03-26T03:10:57.732Z,3.67
2023-03-26T03:13:26.130Z,2.77
2023-03-26T03:15:54.290Z,3.13
2023-03-26T03:18:23.620Z,3.23
2023-03-26T03:20:51.945Z,3.33
2023-03-26T03:23:19.732Z,3.03
2023-03-26T03:25:48.797Z,3.30
2023-03-26T03:28:18.276Z,2.73
2023-03-26T03:30:47.095Z,2.97
2023-03-26T03:33:15.093Z,2.83
2023-03-26T03:35:46.038Z,3.20
2023-03-26T03:38:14.025Z,2.90
2023-03-26T03:40:41.876Z,2.67
2023-03-26T03:43:09.815Z,2.73
2023-03-26T03:45:37.849Z,2.63
2023-03-26T03:48:06.290Z,3.10
2023-03-26T03:50:35.787Z,3.20
2023-03-26T03:53:05.767Z,3.03
2023-03-26T03:55:33.661Z,3.60
2023-03-26T03:58:01.510Z,3.23
2023-03-26T04:00:30.742Z,2.83
2023-03-26T04:02:58.806Z,2.67
2023-03-26T04:05:26.659Z,2.87
2023-03-26T04:07:54.521Z,2.93
2023-03-26T04:10:23.735Z,2.57
2023-03-26T04:12:51.560Z,3.07
2023-03-26T04:15:19.694Z,2.77
2023-03-26T04:17:47.490Z,2.80
2023-03-26T04:20:15.856Z,2.80
2023-03-26T04:22:43.963Z,3.07
2023-03-26T04:25:12.235Z,2.47
2023-03-26T04:27:43.362Z,2.80
2023-03-26T04:30:16.660Z,2.90
2023-03-26T04:32:44.764Z,2.93
2023-03-26T04:35:14.749Z,2.63
2023-03-26T04:37:44.487Z,3.23
2023-03-26T04:40:16.564Z,2.90
2023-03-26T04:42:46.680Z,2.90
2023-03-26T04:45:15.712Z,2.47
2023-03-26T04:47:43.526Z,2.90
2023-03-26T04:50:12.600Z,2.50
2023-03-26T04:52:42.014Z,2.70
2023-03-26T04:55:23.153Z,2.47
2023-03-26T04:57:57.523Z,2.80
2023-03-26T05:00:25.508Z,3.13
2023-03-26T05:02:56.217Z,3.33
2023-03-26T05:05:24.599Z,3.60
2023-03-26T05:07:52.477Z,2.90
2023-03-26T05:10:21.431Z,2.83
2023-03-26T05:12:52.379Z,2.43
2023-03-26T05:15:21.716Z,2.83
2023-03-26T05:17:49.498Z,2.87
2023-03-26T05:20:20.948Z,3.37
2023-03-26T05:22:49.928Z,2.57
2023-03-26T05:25:18.571Z,3.20
2023-03-26T05:27:47.117Z,3.33
2023-03-26T05:30:16.697Z,3.10
2023-03-26T05:32:46.187Z,2.40
2023-03-26T05:35:16.928Z,2.57
2023-03-26T05:37:45.539Z,3.37
2023-03-26T05:40:15.242Z,3.03
2023-03-26T05:42:43.357Z,2.57
2023-03-26T05:45:14.330Z,3.07
2023-03-26T05:47:42.503Z,3.40
2023-03-26T05:50:12.388Z,3.40
2023-03-26T05:52:40.478Z,2.67
2023-03-26T05:55:09.159Z,2.50
2023-03-26T05:57:37.657Z,3.00
2023-03-26T06:00:08.987Z,3.03
2023-03-26T06:02:37.057Z,3.20
2023-03-26T06:05:05.610Z,2.97
2023-03-26T06:07:35.131Z,3.27
2023-03-26T06:10:03.564Z,3.30
2023-03-26T06:12:31.428Z,3.20
2023-03-26T06:14:59.285Z,2.97
2023-03-26T06:17:27.371Z,3.77
2023-03-26T06:19:55.313Z,4.10
2023-03-26T06:22:23.153Z,2.60
2023-03-26T06:24:53.063Z,2.90
2023-03-26T06:27:20.866Z,3.60
2023-03-26T06:29:49.164Z,3.50
2023-03-26T06:32:20.005Z,3.10
2023-03-26T06:34:48.369Z,2.90
2023-03-26T06:37:16.195Z,3.30
2023-03-26T06:39:44.111Z,3.93
2023-03-26T06:42:13.302Z,2.83
2023-03-26T06:44:41.076Z,3.30
2023-03-26T06:47:08.985Z,2.50
2023-03-26T06:49:38.215Z,2.83
2023-03-26T06:52:06.528Z,2.83
2023-03-26T06:54:34.303Z,3.10
2023-03-26T06:57:02.220Z,2.80
2023-03-26T06:59:31.575Z,3.47
2023-03-26T07:01:59.463Z,3.27
2023-03-26T07:04:27.389Z,3.30
2023-03-26T07:06:55.927Z,3.10
2023-03-26T07:09:23.736Z,3.73
2023-03-26T07:11:51.675Z,3.37
2023-03-26T07:14:19.535Z,3.07
2023-03-26T07:16:48.804Z,3.60
2023-03-26T07:19:16.927Z,3.00
2023-03-26T07:21:46.601Z,2.40
2023-03-26T07:24:15.555Z,2.60
2023-03-26T07:26:52.992Z,2.60
2023-03-26T07:29:32.381Z,2.53
2023-03-26T07:32:09.120Z,2.27
2023-03-26T07:34:51.487Z,2.70
2023-03-26T07:37:33.979Z,2.30
2023-03-26T07:40:06.071Z,2.73
2023-03-26T07:42:51.360Z,2.93
2023-03-26T07:45:27.086Z,3.30
2023-03-26T07:47:57.145Z,4.00
2023-03-26T07:50:26.510Z,3.50
2023-03-26T07:52:54.812Z,3.47
2023-03-26T07:55:23.136Z,3.90
2023-03-26T07:58:00.715Z,3.10
2023-03-26T08:00:36.183Z,3.67
2023-03-26T08:03:31.330Z,3.77
2023-03-26T08:06:10.397Z,3.50
2023-03-26T08:08:46.242Z,3.20
2023-03-26T08:11:27.338Z,3.17
2023-03-26T08:14:04.751Z,3.40
2023-03-26T08:16:38.472Z,3.60
2023-03-26T08:19:18.084Z,3.10
2023-03-26T08:21:51.080Z,3.37
2023-03-26T08:24:23.948Z,2.83
2023-03-26T08:27:00.170Z,3.50
2023-03-26T08:29:34.542Z,3.00
2023-03-26T08:32:05.093Z,3.47
2023-03-26T08:34:34.300Z,3.20
2023-03-26T08:37:02.507Z,4.20
2023-03-26T08:39:30.330Z,3.43
2023-03-26T08:42:38.659Z,4.37
2023-03-26T08:45:39.842Z,3.23
2023-03-26T08:48:51.837Z,3.47
2023-03-26T08:51:58.135Z,3.90
2023-03-26T08:55:06.213Z,2.90
2023-03-26T08:58:11.140Z,3.60
2023-03-26T09:00:50.394Z,4.00
2023-03-26T09:03:47.643Z,3.73
2023-03-26T09:06:44.377Z,3.73
2023-03-26T09:09:45.687Z,4.10
2023-03-26T09:12:36.503Z,3.30
2023-03-26T09:15:41.121Z,2.97
2023-03-26T09:18:41.013Z,2.70
2023-03-26T09:21:39.222Z,2.20
2023-03-26T09:24:46.697Z,2.57
2023-03-26T09:27:38.139Z,2.10
2023-03-26T09:30:32.577Z,1.97
2023-03-26T09:33:32.656Z,1.70
2023-03-26T09:36:19.530Z,1.57
2023-03-26T09:38:54.231Z,1.50
2023-03-26T09:41:36.679Z,1.40
2023-03-26T09:44:34.230Z,1.40
2023-03-26T09:47:25.754Z,1.37
2023-03-26T09:50:10.379Z,1.43
2023-03-26T09:53:05.329Z,1.60
2023-03-26T09:55:54.426Z,2.50
2023-03-26T09:58:42.986Z,2.30
2023-03-26T10:01:18.424Z,2.00
2023-03-26T10:03:59.238Z,1.73
2023-03-26T10:06:51.731Z,1.77
2023-03-26T10:09:35.372Z,2.10
2023-03-26T10:12:23.492Z,2.20
2023-03-26T10:15:02.981Z,3.80
2023-03-26T10:17:44.251Z,4.03
2023-03-26T10:20:34.057Z,4.53
2023-03-26T10:23:15.878Z,4.57
2023-03-26T10:25:54.905Z,4.53
2023-03-26T10:28:39.101Z,4.43
2023-03-26T10:31:23.023Z,4.80
2023-03-26T10:34:02.385Z,4.47
2023-03-26T10:36:33.623Z,4.93
2023-03-26T10:39:37.315Z,5.30
2023-03-26T10:42:21.413Z,4.93
2023-03-26T10:45:05.191Z,4.97
2023-03-26T10:47:56.057Z,4.40
2023-03-26T10:50:52.529Z,3.80
2023-03-26T10:53:32.389Z,4.10
2023-03-26T10:56:13.639Z,4.27
2023-03-26T10:58:48.440Z,3.80
2023-03-26T11:01:29.874Z,2.80
2023-03-26T11:04:02.694Z,2.50
2023-03-26T11:06:41.972Z,2.37
2023-03-26T11:09:22.613Z,2.47
2023-03-26T11:11:58.523Z,2.03
2023-03-26T11:14:35.268Z,2.37
2023-03-26T11:17:14.477Z,2.10
2023-03-26T11:20:06.271Z,1.90
2023-03-26T11:22:47.579Z,2.20
2023-03-26T11:25:36.130Z,2.30
2023-03-26T11:28:24.980Z,2.20
2023-03-26T11:31:00.624Z,2.27
2023-03-26T11:33:33.987Z,1.73
2023-03-26T11:36:07.327Z,1.97
2023-03-26T11:38:38.867Z,2.00
2023-03-26T11:41:14.119Z,2.27
2023-03-26T11:43:49.571Z,2.13
2023-03-26T11:46:20.519Z,2.57
2023-03-26T11:48:50.911Z,1.93
2023-03-26T11:51:24.736Z,2.00
2023-03-26T11:53:54.525Z,2.20
2023-03-26T11:56:29.232Z,2.43
2023-03-26T11:59:05.400Z,2.03
2023-03-26T12:01:50.489Z,2.10
2023-03-26T12:04:20.691Z,2.60
2023-03-26T12:06:56.543Z,2.13
2023-03-26T12:09:25.856Z,2.07
2023-03-26T12:12:00.435Z,2.43
2023-03-26T12:14:31.787Z,2.10
2023-03-26T12:17:05.234Z,1.80
2023-03-26T12:19:39.494Z,1.97
2023-03-26T12:22:08.390Z,1.77
2023-03-26T12:24:37.310Z,2.10
2023-03-26T12:27:22.748Z,2.33
2023-03-26T12:29:54.990Z,1.87
2023-03-26T12:32:29.707Z,2.00
2023-03-26T12:35:09.024Z,1.70
2023-03-26T12:37:40.830Z,1.77
2023-03-26T12:40:29.307Z,1.83
2023-03-26T12:44:49.557Z,2.27
2023-03-26T12:47:26.501Z,1.97
2023-03-26T12:48:42.896Z,1.67
2023-03-26T12:51:18.794Z,2.00
2023-03-26T12:53:58.797Z,2.03
2023-03-26T12:56:37.022Z,1.80
2023-03-26T12:59:31.558Z,2.07
2023-03-26T13:02:17.702Z,1.93
2023-03-26T13:05:05.025Z,1.53
2023-03-26T13:07:45.480Z,1.70
2023-03-26T13:10:45.473Z,1.90
2023-03-26T13:13:37.307Z,1.80
2023-03-26T13:16:10.632Z,1.60
2023-03-26T13:18:49.220Z,1.87
2023-03-26T13:21:23.954Z,1.40
2023-03-26T13:24:01.419Z,1.90
2023-03-26T13:26:44.545Z,1.77
2023-03-26T13:29:18.677Z,1.77
2023-03-26T13:31:55.995Z,1.40
2023-03-26T13:34:33.472Z,2.00
2023-03-26T13:37:12.777Z,1.70
2023-03-26T13:39:56.744Z,1.43
2023-03-26T13:42:40.552Z,1.67
2023-03-26T13:45:15.584Z,1.83
2023-03-26T13:47:48.545Z,1.73
2023-03-26T13:50:26.371Z,1.60
2023-03-26T13:53:00.392Z,1.47
2023-03-26T13:55:31.933Z,1.40
2023-03-26T13:58:04.886Z,1.40
2023-03-26T14:00:54.422Z,1.23
2023-03-26T14:03:30.081Z,1.90
2023-03-26T14:06:02.990Z,1.70
2023-03-26T14:08:36.841Z,1.43
2023-03-26T14:11:11.029Z,1.17
2023-03-26T14:13:44.708Z,1.40
2023-03-26T14:16:19.756Z,1.47
2023-03-26T14:18:56.127Z,1.37
2023-03-26T14:21:41.670Z,1.40
2023-03-26T14:24:46.958Z,1.40
2023-03-26T14:27:35.004Z,1.40
2023-03-26T14:30:39.152Z,1.63
2023-03-26T14:33:28.038Z,1.20
2023-03-26T14:36:08.011Z,1.00
2023-03-26T14:39:02.150Z,1.67
2023-03-26T14:41:36.415Z,1.40
2023-03-26T14:44:47.639Z,1.50
2023-03-26T14:47:18.935Z,1.00
2023-03-26T14:50:35.812Z,1.13
2023-03-26T14:53:14.759Z,1.20
2023-03-26T14:56:11.668Z,1.00
2023-03-26T14:59:09.795Z,0.53
2023-03-26T15:02:06.203Z,1.20
2023-03-26T15:05:10.748Z,1.10
2023-03-26T15:07:53.705Z,1.13
2023-03-26T15:10:52.578Z,1.67
2023-03-26T15:13:46.845Z,1.33
2023-03-26T15:16:46.685Z,0.90
2023-03-26T15:19:59.746Z,1.70
2023-03-26T15:23:08.232Z,1.17
2023-03-26T15:26:24.450Z,0.90
2023-03-26T15:29:48.360Z,1.17
2023-03-26T15:32:40.573Z,1.23
2023-03-26T15:35:36.679Z,1.20
2023-03-26T15:38:55.325Z,1.57
2023-03-26T15:41:28.253Z,1.30
2023-03-26T15:44:23.993Z,1.40
2023-03-26T15:47:03.069Z,1.20
2023-03-26T15:49:41.026Z,1.50
2023-03-26T15:52:21.115Z,1.50
2023-03-26T15:54:54.192Z,1.30
2023-03-26T15:57:31.255Z,1.53
2023-03-26T16:00:23.139Z,1.40
2023-03-26T16:03:09.970Z,1.73
2023-03-26T16:05:52.458Z,0.87
2023-03-26T16:08:29.295Z,1.03
2023-03-26T16:10:59.404Z,1.17
2023-03-26T16:13:38.814Z,1.17
2023-03-26T16:16:23.118Z,1.00
2023-03-26T16:18:58.418Z,1.20
2023-03-26T16:21:55.438Z,1.80
2023-03-26T16:24:33.885Z,1.17
2023-03-26T16:27:32.167Z,1.17
2023-03-26T16:30:29.095Z,1.57
2023-03-26T16:33:09.617Z,1.23
2023-03-26T16:36:03.686Z,1.00
2023-03-26T16:38:51.902Z,1.23
2023-03-26T16:41:22.120Z,1.10
2023-03-26T16:44:02.211Z,1.20
2023-03-26T16:46:38.221Z,1.40
2023-03-26T16:49:18.676Z,0.80
2023-03-26T16:51:58.420Z,1.07
2023-03-26T16:54:36.255Z,1.10
2023-03-26T16:57:17.391Z,1.30
2023-03-26T17:00:07.376Z,1.10
2023-03-26T17:02:49.128Z,1.30
2023-03-26T17:05:25.791Z,0.97
2023-03-26T17:08:01.333Z,1.00
2023-03-26T17:10:36.417Z,1.30
2023-03-26T17:13:08.864Z,1.10
2023-03-26T17:15:46.992Z,1.30
2023-03-26T17:18:29.097Z,1.20
2023-03-26T17:21:03.417Z,1.50
2023-03-26T17:23:53.303Z,1.37
2023-03-26T17:26:25.365Z,1.10
2023-03-26T17:29:08.988Z,0.60
2023-03-26T17:31:42.459Z,0.60
2023-03-26T17:34:45.758Z,0.97
2023-03-26T17:37:45.840Z,1.13
2023-03-26T17:40:48.617Z,0.97
2023-03-26T17:43:42.786Z,0.87
2023-03-26T17:46:21.705Z,1.20
2023-03-26T17:48:58.259Z,1.47
2023-03-26T17:51:41.167Z,1.10
2023-03-26T17:54:18.652Z,1.20
2023-03-26T17:56:48.069Z,0.40
2023-03-26T17:59:23.499Z,0.93
2023-03-26T18:01:55.435Z,1.10
2023-03-26T18:04:31.815Z,0.90
2023-03-26T18:07:28.240Z,1.20
2023-03-26T18:10:28.829Z,1.83
2023-03-26T18:13:15.349Z,1.07
2023-03-26T18:15:52.609Z,1.53
2023-03-26T18:18:24.346Z,0.37
2023-03-26T18:23:26.507Z,1.07
2023-03-26T18:26:09.397Z,1.50
2023-03-26T18:28:43.047Z,0.93
2023-03-26T18:31:18.709Z,1.30
2023-03-26T18:33:48.263Z,1.50
2023-03-26T18:36:18.510Z,0.60
2023-03-26T18:38:46.939Z,1.00
2023-03-26T18:41:25.086Z,1.23
2023-03-26T18:43:52.993Z,1.00
2023-03-26T18:46:25.120Z,0.97
2023-03-26T18:48:55.187Z,1.10
2023-03-26T18:51:23.807Z,1.17
2023-03-26T18:53:53.518Z,1.10
2023-03-26T18:56:36.249Z,1.13
2023-03-26T18:59:06.148Z,0.87
2023-03-26T19:01:36.945Z,1.37
2023-03-26T19:04:07.967Z,1.03
2023-03-26T19:06:41.167Z,1.10
2023-03-26T19:09:27.944Z,1.07
2023-03-26T19:12:06.701Z,2.40
2023-03-26T19:14:36.909Z,2.03
2023-03-26T19:17:07.501Z,1.30
2023-03-26T19:19:38.712Z,0.73
2023-03-26T19:22:07.879Z,0.93
2023-03-26T19:24:36.235Z,1.50
2023-03-26T19:27:05.967Z,0.97
2023-03-26T19:29:36.265Z,1.10
2023-03-26T19:32:06.339Z,1.57
2023-03-26T19:34:37.301Z,1.20
2023-03-26T19:37:19.041Z,1.30
2023-03-26T19:39:49.533Z,1.43
2023-03-26T19:42:21.418Z,1.30
2023-03-26T19:44:50.507Z,1.40
2023-03-26T19:47:26.791Z,1.30
2023-03-26T19:50:02.597Z,1.10
2023-03-26T19:52:35.834Z,1.47
2023-03-26T19:55:17.996Z,1.13
2023-03-26T19:57:47.542Z,1.30
2023-03-26T20:00:16.147Z,1.00
2023-03-26T20:02:46.535Z,1.20
2023-03-26T20:05:22.912Z,1.13
2023-03-26T20:07:51.214Z,1.20
2023-03-26T20:10:19.471Z,0.60
2023-03-26T20:12:48.810Z,1.07
2023-03-26T20:15:21.102Z,0.60
2023-03-26T20:17:50.182Z,1.10
2023-03-26T20:20:18.212Z,1.03
2023-03-26T20:22:47.031Z,1.37
2023-03-26T20:25:20.845Z,0.87
2023-03-26T20:27:53.076Z,1.10
2023-03-26T20:30:36.399Z,1.30
2023-03-26T20:33:12.115Z,0.73
2023-03-26T20:35:42.685Z,0.80
2023-03-26T20:38:10.427Z,0.90
2023-03-26T20:40:39.209Z,0.80
2023-03-26T20:43:12.842Z,1.23
2023-03-26T20:45:41.598Z,1.10
2023-03-26T20:48:10.518Z,0.90
2023-03-26T20:50:49.967Z,1.40
2023-03-26T20:53:19.088Z,0.30
2023-03-26T20:55:49.285Z,1.10
2023-03-26T20:58:31.088Z,1.10
2023-03-26T21:01:01.746Z,0.83
2023-03-26T21:03:29.908Z,0.73
2023-03-26T21:06:01.132Z,0.97
2023-03-26T21:08:35.330Z,1.10
2023-03-26T21:11:05.351Z,0.73
2023-03-26T21:13:38.584Z,1.03
2023-03-26T21:16:08.007Z,1.30
2023-03-26T21:18:36.928Z,0.90
2023-03-26T21:21:21.542Z,1.23
2023-03-26T21:24:00.189Z,0.97
2023-03-26T21:26:31.981Z,1.23
2023-03-26T21:29:02.304Z,0.97
2023-03-26T21:31:31.437Z,1.70
2023-03-26T21:33:59.689Z,0.90
2023-03-26T21:36:28.195Z,1.00
2023-03-26T21:38:56.676Z,0.80
2023-03-26T21:41:36.016Z,0.93
2023-03-26T21:44:05.490Z,0.90
2023-03-26T21:46:34.117Z,0.93
2023-03-26T21:49:02.550Z,0.70
2023-03-26T21:51:32.053Z,0.83
2023-03-26T21:54:00.525Z,0.83
2023-03-26T21:56:42.937Z,0.87
2023-03-26T21:59:22.975Z,0.90
2023-03-26T22:01:57.552Z,0.50
2023-03-26T22:04:33.008Z,0.40
2023-03-26T22:07:06.080Z,0.80
2023-03-26T22:09:36.511Z,0.50
2023-03-26T22:12:04.861Z,0.80
2023-03-26T22:14:34.434Z,1.10
2023-03-26T22:17:02.263Z,0.60
2023-03-26T22:19:30.665Z,0.67
2023-03-26T22:22:00.075Z,0.70
2023-03-26T22:24:28.098Z,0.90
2023-03-26T22:26:56.144Z,0.40
2023-03-26T22:29:24.101Z,0.57
2023-03-26T22:31:53.245Z,0.67
2023-03-26T22:34:21.241Z,0.50
2023-03-26T22:36:49.104Z,0.47
2023-03-26T22:39:17.242Z,0.60
2023-03-26T22:41:45.069Z,0.73
2023-03-26T22:44:20.182Z,0.70
2023-03-26T22:46:49.413Z,0.40
2023-03-26T22:49:19.038Z,0.27
2023-03-26T22:51:47.017Z,0.83
2023-03-26T22:54:14.785Z,0.80
2023-03-26T22:56:43.672Z,1.13
2023-03-26T22:59:11.517Z,0.50
2023-03-26T23:01:39.385Z,0.80
2023-03-26T23:04:07.317Z,0.73
2023-03-26T23:06:36.697Z,0.93
2023-03-26T23:09:07.106Z,0.83
2023-03-26T23:11:34.928Z,0.70
2023-03-26T23:14:02.812Z,0.93
2023-03-26T23:16:31.662Z,0.63
2023-03-26T23:18:59.446Z,0.73
2023-03-26T23:21:27.397Z,0.40
2023-03-26T23:23:56.544Z,0.77
2023-03-26T23:26:24.409Z,0.57
2023-03-26T23:28:52.569Z,0.90
2023-03-26T23:31:20.440Z,0.67
2023-03-26T23:33:50.284Z,1.00
2023-03-26T23:36:20.163Z,0.60
2023-03-26T23:38:49.436Z,0.73
2023-03-26T23:41:21.620Z,0.80
2023-03-26T23:43:55.542Z,0.50
2023-03-26T23:46:25.089Z,0.83
2023-03-26T23:48:53.519Z,0.93
2023-03-26T23:51:22.333Z,0.57
2023-03-26T23:53:50.632Z,0.63
2023-03-26T23:56:20.211Z,0.70
2023-03-26T23:58:48.870Z,0.70
